Time;durP1;ratioP1;P1;durP2;ratioP2;P2;SDS_P1;SDS_P2;PMS_P1;PMS_P2;Temp;Humidity;BMP_temperature;BMP_pressure;BME280_temperature;BME280_humidity;BME280_pressure;Samples;Min_cycle;Max_cycle;Signal;HPM_P1;HPM_P2
2024/04/21 00:02:21;;;;;;;6.07;1.60;;;8.90;91.70;;;;;;5429468;26;19995;-56
2024/04/21 00:04:47;;;;;;;7.72;1.42;;;8.90;91.80;;;;;;5429807;26;20011;-57
2024/04/21 00:07:13;;;;;;;3.60;1.13;;;8.90;91.70;;;;;;5427896;26;20000;-56
2024/04/21 00:09:38;;;;;;;2.38;1.20;;;8.90;91.80;;;;;;5427644;26;20129;-56
2024/04/21 00:12:04;;;;;;;4.15;1.38;;;8.90;91.80;;;;;;5429681;26;20010;-56
2024/04/21 00:14:30;;;;;;;5.57;1.10;;;8.90;91.80;;;;;;5427529;26;20002;-56
2024/04/21 00:16:55;;;;;;;2.50;1.35;;;8.90;91.80;;;;;;5429746;26;20023;-57
2024/04/21 00:19:21;;;;;;;3.22;1.10;;;8.90;91.80;;;;;;5427648;26;19996;-57
2024/04/21 00:21:47;;;;;;;5.70;1.40;;;8.80;91.80;;;;;;5429302;26;20028;-57
2024/04/21 00:24:12;;;;;;;3.95;1.15;;;8.80;91.80;;;;;;5426136;26;19996;-56
2024/04/21 00:26:38;;;;;;;2.95;1.23;;;8.80;91.90;;;;;;5427607;26;19995;-56
2024/04/21 00:29:04;;;;;;;3.38;0.80;;;8.80;91.90;;;;;;5427490;26;19996;-56
2024/04/21 00:31:30;;;;;;;3.45;1.20;;;8.80;91.90;;;;;;5427457;26;20418;-57
2024/04/21 00:33:55;;;;;;;2.20;0.90;;;8.80;91.90;;;;;;5469208;26;20287;-56
2024/04/21 00:36:21;;;;;;;3.80;1.55;;;8.80;91.90;;;;;;5494033;26;20003;-56
2024/04/21 00:38:47;;;;;;;2.63;1.20;;;8.80;91.90;;;;;;5465413;26;20003;-56
2024/04/21 00:41:13;;;;;;;2.42;1.20;;;8.70;91.90;;;;;;5433236;26;20006;-56
2024/04/21 00:43:38;;;;;;;4.20;1.55;;;8.70;91.90;;;;;;5459544;26;20179;-56
2024/04/21 00:46:04;;;;;;;2.75;1.20;;;8.70;92.00;;;;;;5463205;26;19995;-56
2024/04/21 00:48:30;;;;;;;2.95;0.75;;;8.70;91.90;;;;;;5493795;26;19999;-56
2024/04/21 00:50:55;;;;;;;2.20;0.93;;;8.70;92.00;;;;;;5463113;26;20003;-57
2024/04/21 00:53:22;;;;;;;3.20;1.20;;;8.70;92.00;;;;;;5491195;26;20025;-56
2024/04/21 00:55:47;;;;;;;1.10;0.90;;;8.70;92.00;;;;;;5460858;26;20007;-56
2024/04/21 00:58:14;;;;;;;1.38;1.00;;;8.60;92.00;;;;;;5463256;26;20007;-56
2024/04/21 01:00:40;;;;;;;2.47;1.10;;;8.60;92.00;;;;;;5493707;26;20051;-56
2024/04/21 01:03:06;;;;;;;2.17;1.00;;;8.60;91.90;;;;;;5441061;26;19992;-57
2024/04/21 01:05:32;;;;;;;5.38;1.20;;;8.70;92.00;;;;;;5426544;26;20011;-57
2024/04/21 01:07:58;;;;;;;2.72;1.05;;;8.70;92.00;;;;;;5427061;26;20010;-56
2024/04/21 01:10:23;;;;;;;2.85;1.10;;;8.60;92.00;;;;;;5427018;26;19996;-56
2024/04/21 01:12:49;;;;;;;2.67;1.00;;;8.60;92.00;;;;;;5434091;26;20006;-57
2024/04/21 01:15:15;;;;;;;3.20;1.23;;;8.60;92.00;;;;;;5464629;26;19994;-57
2024/04/21 01:17:41;;;;;;;1.92;1.38;;;8.60;92.00;;;;;;5462948;26;20170;-56
2024/04/21 01:20:07;;;;;;;2.33;1.05;;;8.60;92.00;;;;;;5492992;26;20003;-56
2024/04/21 01:22:33;;;;;;;4.90;1.20;;;8.60;92.00;;;;;;5454047;26;20287;-57
2024/04/21 01:24:59;;;;;;;3.15;1.30;;;8.60;92.00;;;;;;5428624;26;19987;-56
2024/04/21 01:27:24;;;;;;;2.03;1.15;;;8.60;92.00;;;;;;5397130;26;20033;-56
2024/04/21 01:29:50;;;;;;;3.38;1.13;;;8.60;92.10;;;;;;5428406;26;19991;-56
2024/04/21 01:32:19;;;;;;;2.85;1.05;;;8.50;92.10;;;;;;5437837;26;19995;-56
2024/04/21 01:34:44;;;;;;;2.08;0.93;;;8.60;92.10;;;;;;5462569;26;20005;-56
2024/04/21 01:37:10;;;;;;;2.42;0.98;;;8.50;92.10;;;;;;5462597;26;20010;-57
2024/04/21 01:39:36;;;;;;;2.33;1.10;;;8.50;92.10;;;;;;5462340;26;19995;-57
2024/04/21 01:42:01;;;;;;;1.95;1.02;;;8.50;92.20;;;;;;5458619;26;20014;-56
2024/04/21 01:44:27;;;;;;;1.05;0.70;;;8.50;92.20;;;;;;5464389;26;20063;-56
2024/04/21 01:46:53;;;;;;;1.17;1.00;;;8.50;92.20;;;;;;5462451;26;19995;-56
2024/04/21 01:49:20;;;;;;;1.50;1.15;;;8.50;92.20;;;;;;5462852;26;20037;-57
2024/04/21 01:51:45;;;;;;;1.55;0.98;;;8.50;92.20;;;;;;5417390;26;20000;-56
2024/04/21 01:54:11;;;;;;;1.75;1.00;;;8.50;92.30;;;;;;5431321;26;20010;-56
2024/04/21 01:56:37;;;;;;;2.10;1.10;;;8.50;92.30;;;;;;5426414;26;19992;-56
2024/04/21 01:59:03;;;;;;;0.85;0.82;;;8.50;92.30;;;;;;5426205;26;19995;-56
2024/04/21 02:01:28;;;;;;;1.27;0.77;;;8.50;92.30;;;;;;5426156;26;20000;-56
2024/04/21 02:03:54;;;;;;;1.98;1.20;;;8.50;92.30;;;;;;5428174;26;20007;-57
2024/04/21 02:06:20;;;;;;;1.45;0.90;;;8.50;92.30;;;;;;5428096;26;20000;-56
2024/04/21 02:08:45;;;;;;;1.23;0.90;;;8.50;92.30;;;;;;5426155;26;19999;-56
2024/04/21 02:11:11;;;;;;;2.00;1.00;;;8.40;92.30;;;;;;5440066;26;20005;-56
2024/04/21 02:13:36;;;;;;;1.95;1.10;;;8.40;92.40;;;;;;5457964;26;20003;-58
2024/04/21 02:16:04;;;;;;;1.02;0.80;;;8.40;92.40;;;;;;5432019;26;20045;-57
2024/04/21 02:18:30;;;;;;;1.75;0.77;;;8.40;92.40;;;;;;5427774;26;19995;-57
2024/04/21 02:20:56;;;;;;;1.27;1.00;;;8.40;92.40;;;;;;5445462;26;20003;-56
2024/04/21 02:23:21;;;;;;;3.80;0.80;;;8.40;92.40;;;;;;5452164;26;20106;-57
2024/04/21 02:25:56;;;;;;;2.42;0.90;;;8.40;92.40;;;;;;5461501;26;19991;-57
2024/04/21 02:28:22;;;;;;;1.70;1.05;;;8.40;92.50;;;;;;5457297;26;20114;-57
2024/04/21 02:30:47;;;;;;;1.45;1.00;;;8.40;92.50;;;;;;5427094;26;20092;-57
2024/04/21 02:33:13;;;;;;;2.47;1.00;;;8.40;92.50;;;;;;5427218;26;19988;-56
2024/04/21 02:35:39;;;;;;;1.40;1.13;;;8.40;92.50;;;;;;5438157;26;20004;-57
2024/04/21 02:38:04;;;;;;;2.15;1.20;;;8.40;92.50;;;;;;5445527;26;19996;-57
2024/04/21 02:40:30;;;;;;;1.55;1.02;;;8.40;92.40;;;;;;5425403;26;20058;-56
2024/04/21 02:42:56;;;;;;;2.95;0.90;;;8.40;92.40;;;;;;5485841;26;19999;-56
2024/04/21 02:45:21;;;;;;;2.28;0.95;;;8.40;92.40;;;;;;5495160;26;19994;-56
2024/04/21 02:47:47;;;;;;;1.02;0.88;;;8.40;92.40;;;;;;5436365;26;20000;-56
2024/04/21 02:50:12;;;;;;;1.50;1.00;;;8.40;92.40;;;;;;5425453;26;19992;-57
2024/04/21 02:52:38;;;;;;;1.10;0.90;;;8.40;92.40;;;;;;5425537;26;20003;-56
2024/04/21 02:55:04;;;;;;;2.08;1.25;;;8.40;92.40;;;;;;5434258;26;20030;-56
2024/04/21 02:57:31;;;;;;;3.15;0.88;;;8.40;92.40;;;;;;5457234;26;19999;-56
2024/04/21 02:59:57;;;;;;;2.03;1.00;;;8.40;92.50;;;;;;5463855;26;20200;-56
2024/04/21 03:02:23;;;;;;;2.15;1.15;;;8.40;92.50;;;;;;5463137;26;19999;-56
2024/04/21 03:04:49;;;;;;;1.38;0.90;;;8.30;92.50;;;;;;5458601;26;20122;-57
2024/04/21 03:07:14;;;;;;;1.70;0.80;;;8.30;92.60;;;;;;5463419;26;20002;-56
2024/04/21 03:09:43;;;;;;;1.95;1.20;;;8.30;92.50;;;;;;5463167;26;19995;-56
2024/04/21 03:12:09;;;;;;;1.40;1.02;;;8.30;92.60;;;;;;5461105;26;20003;-57
2024/04/21 03:14:35;;;;;;;1.73;1.20;;;8.30;92.60;;;;;;5459544;26;20005;-56
2024/04/21 03:17:02;;;;;;;2.03;1.17;;;8.30;92.60;;;;;;5462988;26;20006;-56
2024/04/21 03:19:28;;;;;;;1.88;1.10;;;8.30;92.60;;;;;;5461249;26;20171;-55
2024/04/21 03:21:54;;;;;;;1.40;1.10;;;8.30;92.60;;;;;;5463090;26;20126;-56
2024/04/21 03:24:19;;;;;;;1.58;1.00;;;8.30;92.60;;;;;;5457147;26;20002;-57
2024/04/21 03:26:45;;;;;;;1.13;0.88;;;8.30;92.60;;;;;;5463010;26;20445;-57
2024/04/21 03:29:11;;;;;;;0.98;0.85;;;8.30;92.60;;;;;;5462924;26;20452;-57
2024/04/21 03:31:36;;;;;;;1.00;0.82;;;8.30;92.60;;;;;;5462952;26;20076;-56
2024/04/21 03:34:02;;;;;;;1.33;1.05;;;8.30;92.70;;;;;;5467799;26;20000;-56
2024/04/21 03:36:27;;;;;;;2.03;0.98;;;8.30;92.70;;;;;;5424491;26;20068;-57
2024/04/21 03:38:53;;;;;;;2.17;1.15;;;8.20;92.60;;;;;;5454788;26;20003;-56
2024/04/21 03:41:19;;;;;;;3.15;1.05;;;8.30;92.60;;;;;;5426640;26;20003;-56
2024/04/21 03:43:46;;;;;;;1.02;0.93;;;8.30;92.60;;;;;;5455440;26;20561;-57
2024/04/21 03:46:12;;;;;;;1.25;1.00;;;8.30;92.60;;;;;;5460887;26;19998;-57
2024/04/21 03:48:38;;;;;;;0.98;0.88;;;8.20;92.60;;;;;;5491059;26;20006;-57
2024/04/21 03:51:05;;;;;;;1.35;1.00;;;8.20;92.70;;;;;;5458562;26;19995;-56
2024/04/21 03:53:30;;;;;;;1.45;1.02;;;8.20;92.70;;;;;;5460335;26;20019;-56
2024/04/21 03:55:56;;;;;;;1.00;0.90;;;8.20;92.70;;;;;;5462411;26;20014;-56
2024/04/21 03:58:22;;;;;;;1.15;0.90;;;8.20;92.70;;;;;;5462352;26;20027;-57
2024/04/21 04:00:47;;;;;;;1.13;0.90;;;8.20;92.70;;;;;;5442844;26;20011;-56
2024/04/21 04:03:13;;;;;;;1.13;0.80;;;8.20;92.80;;;;;;5454320;26;19999;-56
2024/04/21 04:05:38;;;;;;;2.08;1.00;;;8.20;92.80;;;;;;5424170;26;19996;-57
2024/04/21 04:08:04;;;;;;;2.72;1.02;;;8.20;92.80;;;;;;5424051;26;20018;-57
2024/04/21 04:10:31;;;;;;;2.65;0.98;;;8.20;92.80;;;;;;5451269;26;19991;-56
2024/04/21 04:12:56;;;;;;;2.20;1.10;;;8.10;92.80;;;;;;5460463;26;19998;-56
2024/04/21 04:15:22;;;;;;;1.17;0.80;;;8.20;92.80;;;;;;5460251;26;19994;-56
2024/04/21 04:17:48;;;;;;;1.35;1.10;;;8.20;92.80;;;;;;5461090;26;20118;-56
2024/04/21 04:20:13;;;;;;;1.48;0.80;;;8.20;92.70;;;;;;5438464;26;20412;-57
2024/04/21 04:22:39;;;;;;;1.40;0.80;;;8.10;92.70;;;;;;5425924;26;20003;-56
2024/04/21 04:25:05;;;;;;;1.05;0.93;;;8.10;92.70;;;;;;5453871;26;20003;-56
2024/04/21 04:27:31;;;;;;;0.98;0.70;;;8.10;92.70;;;;;;5425957;26;20057;-56
2024/04/21 04:29:57;;;;;;;0.77;0.77;;;8.10;92.70;;;;;;5424284;26;20010;-56
2024/04/21 04:32:22;;;;;;;1.15;0.85;;;8.10;92.70;;;;;;5394274;26;19995;-56
2024/04/21 04:34:48;;;;;;;0.65;0.63;;;8.10;92.80;;;;;;5425740;26;20001;-56
2024/04/21 04:37:14;;;;;;;0.65;0.52;;;8.10;92.80;;;;;;5423827;26;20024;-56
2024/04/21 04:39:39;;;;;;;1.25;1.15;;;8.10;92.80;;;;;;5424049;26;20010;-56
2024/04/21 04:42:06;;;;;;;1.00;0.80;;;8.10;92.80;;;;;;5423811;26;20000;-56
2024/04/21 04:44:31;;;;;;;0.57;0.57;;;8.10;92.80;;;;;;5423584;26;20043;-56
2024/04/21 04:46:57;;;;;;;1.17;0.70;;;8.10;92.80;;;;;;5426487;26;19999;-57
2024/04/21 04:49:22;;;;;;;1.23;0.80;;;8.10;92.80;;;;;;5426985;26;19996;-57
2024/04/21 04:51:48;;;;;;;1.02;0.75;;;8.10;92.80;;;;;;5460352;26;19999;-56
2024/04/21 04:54:14;;;;;;;0.93;0.70;;;8.10;92.80;;;;;;5465471;26;19994;-57
2024/04/21 04:56:39;;;;;;;0.60;0.60;;;8.10;92.80;;;;;;5454968;26;20126;-56
2024/04/21 04:59:06;;;;;;;1.10;0.98;;;8.10;92.80;;;;;;5426218;26;20437;-56
2024/04/21 05:01:31;;;;;;;5.55;0.88;;;8.10;92.80;;;;;;5427475;26;20002;-56
2024/04/21 05:03:57;;;;;;;1.20;0.80;;;8.00;92.80;;;;;;5427045;26;19999;-56
2024/04/21 05:06:23;;;;;;;1.13;0.80;;;8.00;92.80;;;;;;5427025;26;20173;-56
2024/04/21 05:08:48;;;;;;;2.13;1.02;;;8.00;92.80;;;;;;5426685;26;20057;-56
2024/04/21 05:11:14;;;;;;;0.68;0.68;;;8.10;92.80;;;;;;5486798;26;20308;-56
2024/04/21 05:13:39;;;;;;;10.68;1.27;;;8.10;92.80;;;;;;5426756;26;20018;-56
2024/04/21 05:16:05;;;;;;;7.80;1.35;;;8.00;92.80;;;;;;5429010;26;19995;-56
2024/04/21 05:18:31;;;;;;;6.50;1.00;;;8.10;92.80;;;;;;5426913;26;20122;-56
2024/04/21 05:20:57;;;;;;;7.32;1.50;;;8.10;92.80;;;;;;5397259;26;19999;-56
2024/04/21 05:23:22;;;;;;;11.40;1.52;;;8.10;92.80;;;;;;5427396;26;19991;-57
2024/04/21 05:25:49;;;;;;;8.93;1.50;;;8.10;92.80;;;;;;5493217;26;19991;-56
2024/04/21 05:28:15;;;;;;;11.23;1.35;;;8.10;92.80;;;;;;5462464;26;20010;-56
2024/04/21 05:30:40;;;;;;;18.92;1.55;;;8.10;92.80;;;;;;5493109;26;20007;-56
2024/04/21 05:33:06;;;;;;;10.65;1.30;;;8.10;92.90;;;;;;5462712;26;20011;-56
2024/04/21 05:35:31;;;;;;;5.55;1.30;;;8.10;92.90;;;;;;5493074;26;19998;-57
2024/04/21 05:37:58;;;;;;;6.88;1.35;;;8.10;92.90;;;;;;5464485;26;20015;-56
2024/04/21 05:40:23;;;;;;;8.27;1.30;;;8.10;93.30;;;;;;5462464;26;20096;-57
2024/04/21 05:42:49;;;;;;;3.88;1.42;;;8.10;93.00;;;;;;5431618;26;20019;-57
2024/04/21 05:45:15;;;;;;;5.60;1.30;;;8.10;93.10;;;;;;5432541;26;20014;-57
2024/04/21 05:47:40;;;;;;;4.15;1.30;;;8.10;93.10;;;;;;5464236;26;20013;-56
2024/04/21 05:50:07;;;;;;;6.38;1.20;;;8.10;93.10;;;;;;5464140;26;20003;-57
2024/04/21 05:52:33;;;;;;;7.65;1.65;;;8.10;93.10;;;;;;5461255;26;19991;-56
2024/04/21 05:54:58;;;;;;;8.57;1.52;;;8.00;93.10;;;;;;5464072;26;19998;-56
2024/04/21 05:57:24;;;;;;;2.58;1.23;;;8.00;93.10;;;;;;5462064;26;20114;-57
2024/04/21 05:59:50;;;;;;;5.63;1.38;;;8.00;93.20;;;;;;5452315;26;19999;-56
2024/04/21 06:02:15;;;;;;;2.20;1.48;;;8.00;93.20;;;;;;5428159;26;20023;-57
2024/04/21 06:04:41;;;;;;;4.60;1.48;;;8.00;93.30;;;;;;5426414;26;19995;-56
2024/04/21 06:07:06;;;;;;;4.45;1.40;;;8.00;93.30;;;;;;5428117;26;20006;-56
2024/04/21 06:09:34;;;;;;;4.05;1.63;;;8.00;93.30;;;;;;5425975;26;19996;-56
2024/04/21 06:12:01;;;;;;;13.15;1.92;;;8.00;93.30;;;;;;5428131;26;20016;-58
2024/04/21 06:14:27;;;;;;;6.95;1.50;;;8.00;93.40;;;;;;5427441;26;20008;-56
2024/04/21 06:16:52;;;;;;;7.38;2.10;;;8.00;93.60;;;;;;5425635;26;19995;-56
2024/04/21 06:19:18;;;;;;;10.90;2.28;;;8.00;93.60;;;;;;5425876;26;20296;-57
2024/04/21 06:21:44;;;;;;;7.07;1.70;;;8.00;93.70;;;;;;5455883;26;20338;-56
2024/04/21 06:24:09;;;;;;;3.50;1.90;;;8.00;93.70;;;;;;5427848;26;20010;-56
2024/04/21 06:26:35;;;;;;;7.35;1.75;;;8.10;93.70;;;;;;5428087;26;19988;-56
2024/04/21 06:29:01;;;;;;;10.55;2.00;;;8.00;93.70;;;;;;5425843;26;19995;-57
2024/04/21 06:31:26;;;;;;;12.07;1.73;;;8.10;93.70;;;;;;5425872;26;20016;-56
2024/04/21 06:33:52;;;;;;;3.72;1.30;;;8.10;93.80;;;;;;5427653;26;20093;-56
2024/04/21 06:36:17;;;;;;;11.13;1.70;;;8.10;93.80;;;;;;5427834;26;20006;-56
2024/04/21 06:38:43;;;;;;;5.40;1.65;;;8.10;93.70;;;;;;5425836;26;20010;-56
2024/04/21 06:41:11;;;;;;;6.53;1.67;;;8.10;93.70;;;;;;5425650;26;19992;-56
2024/04/21 06:43:37;;;;;;;6.20;1.63;;;8.10;93.70;;;;;;5455533;26;20299;-56
2024/04/21 06:46:02;;;;;;;9.65;1.65;;;8.10;93.70;;;;;;5425692;26;20002;-57
2024/04/21 06:48:28;;;;;;;5.55;1.40;;;8.10;93.70;;;;;;5427750;26;20006;-56
2024/04/21 06:50:54;;;;;;;7.75;1.88;;;8.10;93.70;;;;;;5425480;26;20294;-56
2024/04/21 06:53:19;;;;;;;9.50;1.40;;;8.20;93.70;;;;;;5425334;26;20067;-56
2024/04/21 06:55:45;;;;;;;4.10;1.60;;;8.10;93.70;;;;;;5427613;26;20007;-56
2024/04/21 06:58:11;;;;;;;3.83;1.38;;;8.20;93.70;;;;;;5425547;26;19996;-56
2024/04/21 07:00:36;;;;;;;5.05;1.30;;;8.20;93.70;;;;;;5425386;26;20003;-55
2024/04/21 07:03:02;;;;;;;10.48;1.58;;;8.20;93.70;;;;;;5427456;26;19995;-56
2024/04/21 07:05:28;;;;;;;3.65;1.40;;;8.20;93.70;;;;;;5427380;26;20083;-56
2024/04/21 07:07:53;;;;;;;1.92;1.27;;;8.20;93.60;;;;;;5425278;26;20022;-57
2024/04/21 07:10:19;;;;;;;2.75;1.30;;;8.20;93.60;;;;;;5454802;26;20002;-57
2024/04/21 07:12:44;;;;;;;5.53;1.80;;;8.30;93.60;;;;;;5425317;26;19987;-61
2024/04/21 07:15:10;;;;;;;3.10;1.20;;;8.30;93.50;;;;;;5425095;26;20003;-56
2024/04/21 07:17:36;;;;;;;4.60;1.23;;;8.30;93.60;;;;;;5425053;26;19998;-56
2024/04/21 07:20:04;;;;;;;3.42;1.30;;;8.30;93.60;;;;;;5425037;26;20079;-56
2024/04/21 07:22:29;;;;;;;4.28;1.10;;;8.30;93.50;;;;;;5425405;26;20094;-56
2024/04/21 07:24:55;;;;;;;3.47;1.40;;;8.30;93.50;;;;;;5427238;26;20138;-56
2024/04/21 07:27:21;;;;;;;3.90;1.30;;;8.40;93.70;;;;;;5425150;26;20272;-56
2024/04/21 07:29:46;;;;;;;2.55;1.40;;;8.40;93.50;;;;;;5438238;26;20288;-56
2024/04/21 07:32:12;;;;;;;5.22;1.33;;;8.40;93.40;;;;;;5443836;26;19995;-56
2024/04/21 07:34:37;;;;;;;1.85;1.17;;;8.40;93.40;;;;;;5426588;26;20049;-56
2024/04/21 07:37:03;;;;;;;5.68;1.30;;;8.40;93.40;;;;;;5448851;26;19999;-56
2024/04/21 07:39:29;;;;;;;1.65;0.90;;;8.40;93.40;;;;;;5462006;26;20009;-56
2024/04/21 07:41:55;;;;;;;3.00;1.50;;;8.40;93.40;;;;;;5462013;26;19991;-56
2024/04/21 07:44:21;;;;;;;3.40;1.63;;;8.40;93.40;;;;;;5459649;26;20071;-56
2024/04/21 07:46:47;;;;;;;3.28;1.30;;;8.50;93.50;;;;;;5461846;26;20091;-56
2024/04/21 07:49:13;;;;;;;2.10;1.10;;;8.50;93.50;;;;;;5459928;26;20003;-56
2024/04/21 07:51:38;;;;;;;3.58;1.17;;;8.50;93.50;;;;;;5460162;26;19995;-57
2024/04/21 07:54:05;;;;;;;5.85;1.30;;;8.50;93.40;;;;;;5459731;26;20002;-56
2024/04/21 07:56:31;;;;;;;4.55;1.02;;;8.50;93.40;;;;;;5460617;26;20019;-56
2024/04/21 07:58:56;;;;;;;2.97;0.98;;;8.50;93.40;;;;;;5483419;26;20010;-57
2024/04/21 08:01:22;;;;;;;4.03;1.20;;;8.50;93.40;;;;;;5450489;26;20011;-56
2024/04/21 08:03:48;;;;;;;3.95;1.30;;;8.50;93.40;;;;;;5459729;26;19999;-56
2024/04/21 08:06:13;;;;;;;2.00;1.38;;;8.60;93.40;;;;;;5461742;26;20019;-56
2024/04/21 08:08:39;;;;;;;1.55;1.02;;;8.60;93.40;;;;;;5460658;26;20056;-56
2024/04/21 08:11:05;;;;;;;2.75;1.00;;;8.60;93.40;;;;;;5461897;26;20044;-56
2024/04/21 08:13:30;;;;;;;2.83;1.50;;;8.60;93.40;;;;;;5459944;26;19999;-56
2024/04/21 08:15:57;;;;;;;8.38;1.25;;;8.60;93.40;;;;;;5458947;26;20010;-56
2024/04/21 08:18:23;;;;;;;9.70;2.10;;;8.60;93.50;;;;;;5458940;26;20363;-57
2024/04/21 08:20:49;;;;;;;23.83;2.78;;;8.60;93.60;;;;;;5459912;26;19991;-56
2024/04/21 08:23:16;;;;;;;15.48;1.98;;;8.60;93.70;;;;;;5449641;26;19999;-56
2024/04/21 08:25:44;;;;;;;18.25;3.15;;;8.60;93.70;;;;;;5444164;26;20063;-56
2024/04/21 08:28:10;;;;;;;14.73;2.10;;;8.70;94.00;;;;;;5424274;26;19996;-56
2024/04/21 08:30:36;;;;;;;9.10;2.63;;;8.70;94.00;;;;;;5441797;26;20010;-56
2024/04/21 08:33:01;;;;;;;12.57;2.20;;;8.70;94.00;;;;;;5422422;26;20022;-57
2024/04/21 08:35:27;;;;;;;22.63;2.78;;;8.70;94.00;;;;;;5448614;26;20045;-57
2024/04/21 08:37:52;;;;;;;24.58;3.65;;;8.70;94.00;;;;;;5463178;26;20358;-58
2024/04/21 08:40:18;;;;;;;24.13;3.42;;;8.70;94.20;;;;;;5456775;26;20521;-59
2024/04/21 08:42:44;;;;;;;32.13;3.28;;;8.80;94.20;;;;;;5429794;26;19999;-57
2024/04/21 08:45:09;;;;;;;35.42;4.47;;;8.80;94.10;;;;;;5401014;26;19999;-56
2024/04/21 08:47:35;;;;;;;47.72;4.68;;;8.80;94.20;;;;;;5460027;26;20010;-56
2024/04/21 08:50:01;;;;;;;29.45;3.75;;;8.80;94.30;;;;;;5464433;26;20012;-56
2024/04/21 08:52:29;;;;;;;68.10;6.35;;;8.90;94.30;;;;;;5432916;26;20007;-56
2024/04/21 08:54:55;;;;;;;73.43;7.28;;;8.90;94.40;;;;;;5463295;26;20003;-55
2024/04/21 08:57:20;;;;;;;78.18;7.13;;;9.00;94.50;;;;;;5425586;26;20001;-56
2024/04/21 08:59:46;;;;;;;68.80;6.72;;;9.00;94.60;;;;;;5414315;26;20011;-56
2024/04/21 09:02:12;;;;;;;83.20;7.90;;;9.00;94.60;;;;;;5455565;26;20060;-56
2024/04/21 09:04:41;;;;;;;61.03;6.88;;;9.00;94.70;;;;;;5471690;26;20010;-56
2024/04/21 09:07:07;;;;;;;57.78;7.18;;;9.00;94.80;;;;;;5458429;26;20122;-56
2024/04/21 09:09:33;;;;;;;39.28;5.97;;;9.10;94.80;;;;;;5458195;26;20447;-56
2024/04/21 09:11:58;;;;;;;49.40;6.55;;;9.10;94.70;;;;;;5461750;26;20056;-56
2024/04/21 09:14:24;;;;;;;42.28;5.15;;;9.10;94.60;;;;;;5452523;26;20403;-56
2024/04/21 09:16:50;;;;;;;53.05;6.53;;;9.10;94.50;;;;;;5446636;26;20006;-56
2024/04/21 09:19:15;;;;;;;51.45;5.80;;;9.10;94.80;;;;;;5454411;26;20133;-57
2024/04/21 09:21:41;;;;;;;66.57;5.82;;;9.00;94.70;;;;;;5461492;26;20104;-56
2024/04/21 09:24:07;;;;;;;58.78;6.00;;;9.00;94.50;;;;;;5461674;26;19999;-56
2024/04/21 09:26:36;;;;;;;108.55;10.15;;;9.00;94.50;;;;;;5455514;26;20002;-56
2024/04/21 09:29:02;;;;;;;74.38;8.98;;;9.00;94.60;;;;;;5459373;26;20025;-57
2024/04/21 09:31:29;;;;;;;74.97;8.13;;;9.00;94.70;;;;;;5447009;26;20006;-56
2024/04/21 09:33:55;;;;;;;95.57;11.75;;;9.00;94.60;;;;;;5454778;26;20543;-57
2024/04/21 09:36:23;;;;;;;105.40;10.95;;;9.00;94.80;;;;;;5426634;26;20025;-56
2024/04/21 09:38:49;;;;;;;116.40;11.40;;;9.00;94.90;;;;;;5436821;26;20006;-56
2024/04/21 09:41:15;;;;;;;99.57;10.65;;;9.00;94.90;;;;;;5423194;26;20045;-56
2024/04/21 09:43:41;;;;;;;110.38;11.70;;;9.00;94.90;;;;;;5444787;26;20347;-56
2024/04/21 09:46:07;;;;;;;104.07;12.15;;;9.00;94.90;;;;;;5445828;26;20038;-57
2024/04/21 09:48:32;;;;;;;86.85;10.75;;;9.00;94.70;;;;;;5458647;26;19994;-58
2024/04/21 09:50:58;;;;;;;93.70;9.10;;;9.10;94.40;;;;;;5430197;26;20011;-59
2024/04/21 09:53:24;;;;;;;111.10;11.48;;;9.10;94.30;;;;;;5422610;26;20091;-59
2024/04/21 09:55:49;;;;;;;135.00;13.20;;;9.10;94.50;;;;;;5460883;26;20006;-55
2024/04/21 09:58:15;;;;;;;159.80;18.42;;;9.10;94.30;;;;;;5416843;26;20002;-59
2024/04/21 10:00:42;;;;;;;134.77;13.10;;;8.90;94.30;;;;;;5457297;26;20006;-59
2024/04/21 10:03:09;;;;;;;152.82;16.20;;;9.20;94.40;;;;;;5428201;26;20011;-59
2024/04/21 10:05:34;;;;;;;155.23;14.27;;;9.20;94.30;;;;;;5459552;26;20454;-59
2024/04/21 10:08:00;;;;;;;156.90;14.88;;;9.30;94.40;;;;;;5457471;26;20003;-59
2024/04/21 10:10:26;;;;;;;223.75;19.48;;;9.30;94.30;;;;;;5471725;26;20066;-59
2024/04/21 10:12:54;;;;;;;152.85;16.63;;;9.30;94.30;;;;;;5403757;26;19999;-61
2024/04/21 10:15:21;;;;;;;133.15;14.82;;;9.30;94.30;;;;;;5399302;26;20024;-62
2024/04/21 10:17:54;;;;;;;180.32;18.30;;;9.30;94.30;;;;;;5441734;26;20006;-61
2024/04/21 10:20:26;;;;;;;202.95;18.92;;;9.30;94.30;;;;;;5455744;26;19999;-62
2024/04/21 10:22:52;;;;;;;168.63;16.13;;;9.40;94.20;;;;;;5452191;26;19995;-62
2024/04/21 10:25:18;;;;;;;139.80;14.32;;;9.40;94.20;;;;;;5439524;26;20011;-62
2024/04/21 10:27:43;;;;;;;210.15;20.00;;;9.40;94.00;;;;;;5460550;26;20034;-62
2024/04/21 10:30:12;;;;;;;152.25;15.63;;;9.40;94.00;;;;;;5454922;26;20368;-59
2024/04/21 10:32:38;;;;;;;213.68;21.67;;;9.50;94.10;;;;;;5448605;26;20066;-62
2024/04/21 10:35:04;;;;;;;208.98;18.70;;;9.50;94.00;;;;;;5432424;26;20038;-66
2024/04/21 10:37:30;;;;;;;187.48;19.48;;;9.50;94.00;;;;;;5453930;26;20087;-61
2024/04/21 10:40:04;;;;;;;191.65;21.85;;;9.50;94.10;;;;;;5425159;26;19996;-62
2024/04/21 10:42:31;;;;;;;195.73;19.25;;;9.50;94.10;;;;;;5462632;26;20011;-62
2024/04/21 10:44:57;;;;;;;366.27;34.33;;;9.50;94.20;;;;;;5456564;26;20003;-62
2024/04/21 10:47:23;;;;;;;381.55;36.95;;;9.60;94.20;;;;;;5436982;26;20276;-62
2024/04/21 10:49:48;;;;;;;217.50;18.83;;;9.60;94.10;;;;;;5442967;26;20018;-61
2024/04/21 10:52:14;;;;;;;164.25;18.95;;;9.70;94.20;;;;;;5414592;26;19998;-60
2024/04/21 10:54:40;;;;;;;162.45;16.48;;;9.70;94.20;;;;;;5420388;26;20080;-60
2024/04/21 10:57:06;;;;;;;169.00;17.02;;;9.70;94.10;;;;;;5473207;26;19994;-59
2024/04/21 10:59:32;;;;;;;150.05;18.30;;;9.70;94.00;;;;;;5394329;26;20000;-60
2024/04/21 11:01:57;;;;;;;178.65;17.38;;;9.70;93.90;;;;;;5411102;26;20426;-60
2024/04/21 11:04:25;;;;;;;230.52;23.95;;;9.70;93.80;;;;;;5442027;26;20003;-59
2024/04/21 11:06:52;;;;;;;203.23;23.45;;;9.80;93.80;;;;;;5451411;26;20013;-59
2024/04/21 11:09:17;;;;;;;254.90;22.27;;;9.80;93.80;;;;;;5432496;26;20154;-60
2024/04/21 11:11:43;;;;;;;245.57;22.75;;;9.80;93.80;;;;;;5451937;26;20010;-59
2024/04/21 11:14:12;;;;;;;201.00;19.92;;;9.80;93.80;;;;;;5435227;26;20447;-60
2024/04/21 11:16:37;;;;;;;189.90;20.88;;;9.80;93.70;;;;;;5424265;26;20000;-60
2024/04/21 11:19:03;;;;;;;161.32;17.52;;;9.90;93.50;;;;;;5426395;26;20335;-60
2024/04/21 11:21:28;;;;;;;219.55;18.17;;;9.90;93.40;;;;;;5456833;26;20010;-60
2024/04/21 11:23:54;;;;;;;259.23;27.10;;;9.90;93.20;;;;;;5431390;26;19996;-59
2024/04/21 11:26:20;;;;;;;255.68;23.73;;;9.90;93.20;;;;;;5483145;26;20000;-60
2024/04/21 11:28:46;;;;;;;230.82;24.42;;;9.90;93.10;;;;;;5451868;26;20006;-60
2024/04/21 11:31:12;;;;;;;272.80;27.13;;;10.00;93.10;;;;;;5452521;26;20075;-59
2024/04/21 11:33:37;;;;;;;255.15;24.40;;;10.00;93.10;;;;;;5443249;26;20039;-58
2024/04/21 11:36:09;;;;;;;194.82;21.42;;;10.00;93.10;;;;;;5406292;26;20014;-60
2024/04/21 11:38:35;;;;;;;191.43;19.50;;;10.10;93.10;;;;;;5449957;26;20049;-60
2024/04/21 11:41:01;;;;;;;200.50;19.92;;;10.10;93.00;;;;;;5439784;26;20011;-60
2024/04/21 11:43:29;;;;;;;208.32;24.05;;;10.10;92.90;;;;;;5419365;26;20018;-60
2024/04/21 11:46:02;;;;;;;247.32;23.83;;;10.20;92.90;;;;;;5470116;26;19990;-60
2024/04/21 11:48:35;;;;;;;236.55;23.70;;;10.30;92.90;;;;;;5430077;26;20613;-60
2024/04/21 11:51:01;;;;;;;275.92;26.58;;;10.30;92.90;;;;;;5428568;26;20007;-60
2024/04/21 11:53:26;;;;;;;188.00;21.83;;;10.30;92.90;;;;;;5448550;26;20009;-60
2024/04/21 11:55:52;;;;;;;225.55;24.98;;;10.40;92.80;;;;;;5460096;26;19998;-60
2024/04/21 11:58:18;;;;;;;245.80;23.75;;;10.40;92.80;;;;;;5462612;26;20013;-60
2024/04/21 12:00:43;;;;;;;236.30;27.05;;;10.40;92.70;;;;;;5465141;26;19998;-60
2024/04/21 12:03:09;;;;;;;262.58;28.50;;;10.40;92.70;;;;;;5420085;26;20075;-60
2024/04/21 12:05:35;;;;;;;281.08;30.70;;;10.50;92.70;;;;;;5438523;26;20091;-60
2024/04/21 12:08:00;;;;;;;248.60;23.55;;;10.50;92.70;;;;;;5452479;26;20014;-60
2024/04/21 12:10:26;;;;;;;289.50;30.08;;;10.50;92.50;;;;;;5451864;26;19999;-60
2024/04/21 12:12:52;;;;;;;242.75;27.80;;;10.50;92.60;;;;;;5444385;26;19995;-60
2024/04/21 12:15:18;;;;;;;301.13;29.88;;;10.60;92.60;;;;;;5439572;26;20450;-60
2024/04/21 12:17:44;;;;;;;282.45;28.17;;;10.60;92.60;;;;;;5442676;26;20003;-60
2024/04/21 12:20:09;;;;;;;242.60;27.52;;;10.70;92.50;;;;;;5458457;26;20020;-60
2024/04/21 12:22:35;;;;;;;276.08;26.98;;;10.70;92.30;;;;;;5459127;26;19995;-60
2024/04/21 12:25:01;;;;;;;229.77;25.73;;;10.70;92.20;;;;;;5511173;26;19998;-60
2024/04/21 12:27:26;;;;;;;219.93;25.48;;;10.70;92.10;;;;;;5453251;26;20010;-60
2024/04/21 12:29:52;;;;;;;231.57;23.55;;;10.80;92.30;;;;;;5445352;26;20477;-59
2024/04/21 12:32:18;;;;;;;233.40;23.83;;;10.80;92.00;;;;;;5459181;26;19995;-60
2024/04/21 12:34:43;;;;;;;192.85;23.23;;;10.80;91.90;;;;;;5426765;26;20007;-60
2024/04/21 12:37:09;;;;;;;226.70;24.80;;;10.90;91.80;;;;;;5425799;26;20419;-59
2024/04/21 12:39:35;;;;;;;291.30;26.52;;;10.90;91.80;;;;;;5428454;26;20003;-60
2024/04/21 12:42:01;;;;;;;270.42;30.77;;;10.90;91.80;;;;;;5441359;26;20075;-60